createdAt,value
2022-08-16T00:02:42.520Z,1.05
2022-08-16T00:05:48.240Z,1.17
2022-08-16T00:08:52.432Z,0.90
2022-08-16T00:11:55.495Z,0.80
2022-08-16T00:15:00.258Z,0.90
2022-08-16T00:18:04.513Z,0.85
2022-08-16T00:21:11.542Z,0.88
2022-08-16T00:24:31.209Z,0.98
2022-08-16T00:27:34.774Z,1.20
2022-08-16T00:30:39.767Z,1.20
2022-08-16T00:36:55.793Z,1.02
2022-08-16T00:39:58.449Z,1.25
2022-08-16T00:43:00.860Z,0.80
2022-08-16T00:46:22.303Z,1.15
2022-08-16T00:49:39.543Z,0.80
2022-08-16T00:52:51.195Z,1.08
2022-08-16T00:55:56.178Z,0.98
2022-08-16T00:59:01.238Z,0.90
2022-08-16T01:02:30.105Z,0.90
2022-08-16T01:05:28.822Z,1.23
2022-08-16T01:11:53.712Z,1.23
2022-08-16T01:15:00.082Z,1.08
2022-08-16T01:18:05.775Z,1.13
2022-08-16T01:21:36.132Z,0.80
2022-08-16T01:24:54.054Z,0.80
2022-08-16T01:28:00.391Z,0.65
2022-08-16T01:31:05.271Z,1.13
2022-08-16T01:34:07.048Z,1.27
2022-08-16T01:37:11.109Z,1.25
2022-08-16T01:40:16.365Z,1.40
2022-08-16T01:43:19.386Z,1.02
2022-08-16T01:46:38.020Z,1.00
2022-08-16T01:50:41.867Z,0.95
2022-08-16T01:53:23.762Z,1.63
2022-08-16T01:56:37.002Z,1.37
2022-08-16T01:59:39.041Z,0.95
2022-08-16T02:02:43.279Z,1.60
2022-08-16T02:05:46.603Z,1.48
2022-08-16T02:08:55.022Z,1.20
2022-08-16T02:12:00.016Z,0.80
2022-08-16T02:15:25.817Z,0.90
2022-08-16T02:18:29.933Z,1.15
2022-08-16T02:21:33.668Z,1.17
2022-08-16T02:24:41.193Z,1.15
2022-08-16T02:27:50.866Z,1.20
2022-08-16T02:30:54.798Z,1.05
2022-08-16T02:33:56.901Z,1.42
2022-08-16T02:37:07.684Z,1.50
2022-08-16T02:40:11.266Z,1.95
2022-08-16T02:46:16.969Z,0.77
2022-08-16T02:49:18.630Z,1.10
2022-08-16T02:52:24.866Z,0.93
2022-08-16T02:55:40.807Z,1.33
2022-08-16T02:58:45.145Z,1.52
2022-08-16T03:01:47.070Z,1.02
2022-08-16T03:04:59.132Z,1.00
2022-08-16T03:08:00.707Z,1.45
2022-08-16T03:11:06.530Z,1.75
2022-08-16T03:14:21.138Z,1.05
2022-08-16T03:17:32.183Z,1.65
2022-08-16T03:20:37.169Z,1.20
2022-08-16T03:23:41.751Z,1.70
2022-08-16T03:26:45.567Z,1.30
2022-08-16T03:29:54.522Z,1.58
2022-08-16T03:32:58.111Z,1.20
2022-08-16T03:36:29.924Z,1.10
2022-08-16T03:39:31.657Z,1.80
2022-08-16T03:42:33.706Z,1.17
2022-08-16T03:45:57.311Z,1.95
2022-08-16T03:49:05.085Z,1.30
2022-08-16T03:52:09.203Z,1.80
2022-08-16T03:55:14.664Z,1.38
2022-08-16T03:58:18.001Z,2.30
2022-08-16T04:01:22.068Z,1.60
2022-08-16T04:04:32.249Z,1.55
2022-08-16T04:07:36.855Z,1.30
2022-08-16T04:10:41.140Z,1.20
2022-08-16T04:14:00.856Z,1.45
2022-08-16T04:17:10.682Z,1.30
2022-08-16T04:20:31.090Z,2.17
2022-08-16T04:23:38.820Z,1.63
2022-08-16T04:29:52.135Z,1.60
2022-08-16T04:32:55.755Z,1.90
2022-08-16T04:35:58.892Z,1.63
2022-08-16T04:39:02.057Z,1.80
2022-08-16T04:42:10.979Z,1.98
2022-08-16T04:45:15.384Z,1.70
2022-08-16T04:48:28.157Z,1.60
2022-08-16T04:51:35.850Z,1.83
2022-08-16T04:54:38.155Z,2.05
2022-08-16T04:57:46.202Z,2.13
2022-08-16T05:00:55.529Z,1.88
2022-08-16T05:04:00.507Z,2.05
2022-08-16T05:07:06.142Z,1.73
2022-08-16T05:10:29.895Z,2.30
2022-08-16T05:16:46.211Z,2.10
2022-08-16T05:19:57.267Z,2.60
2022-08-16T05:23:04.741Z,1.95
2022-08-16T05:26:20.023Z,1.83
2022-08-16T05:29:22.560Z,2.00
2022-08-16T05:32:47.397Z,1.75
2022-08-16T05:35:55.713Z,2.30
2022-08-16T05:39:20.845Z,2.20
2022-08-16T05:42:35.887Z,2.20
2022-08-16T05:45:38.512Z,2.47
2022-08-16T05:48:44.738Z,2.00
2022-08-16T05:51:59.750Z,2.47
2022-08-16T05:55:01.898Z,2.22
2022-08-16T05:58:07.663Z,2.28
2022-08-16T06:04:35.044Z,2.15
2022-08-16T06:07:37.613Z,2.03
2022-08-16T06:11:10.445Z,2.47
2022-08-16T06:14:08.128Z,3.17
2022-08-16T06:17:16.285Z,2.58
2022-08-16T06:20:24.007Z,3.00
2022-08-16T06:23:32.297Z,2.35
2022-08-16T06:26:39.251Z,2.50
2022-08-16T06:29:59.701Z,2.20
2022-08-16T06:33:01.732Z,1.95
2022-08-16T06:39:10.009Z,2.10
2022-08-16T06:42:39.591Z,2.08
2022-08-16T06:46:24.419Z,2.60
2022-08-16T06:49:34.248Z,2.65
2022-08-16T06:52:59.835Z,2.63
2022-08-16T06:55:59.158Z,1.88
2022-08-16T06:59:09.296Z,2.80
2022-08-16T07:02:33.452Z,2.78
2022-08-16T07:05:41.716Z,2.63
2022-08-16T07:08:50.428Z,2.95
2022-08-16T07:11:54.102Z,2.72
2022-08-16T07:15:08.524Z,2.63
2022-08-16T07:18:20.146Z,1.90
2022-08-16T07:21:22.427Z,2.90
2022-08-16T07:24:30.344Z,2.33
2022-08-16T07:27:37.024Z,1.88
2022-08-16T07:30:45.875Z,2.00
2022-08-16T07:34:10.098Z,2.20
2022-08-16T07:37:12.710Z,2.33
2022-08-16T07:40:59.368Z,2.88
2022-08-16T07:43:59.851Z,2.55
2022-08-16T07:47:03.186Z,2.80
2022-08-16T07:50:07.824Z,3.30
2022-08-16T07:53:09.882Z,3.00
2022-08-16T07:56:12.938Z,2.55
2022-08-16T07:59:16.121Z,2.45
2022-08-16T08:02:20.437Z,3.03
2022-08-16T08:05:36.829Z,2.92
2022-08-16T08:08:51.104Z,3.22
2022-08-16T08:12:00.671Z,2.90
2022-08-16T08:15:10.685Z,3.08
2022-08-16T08:18:30.256Z,3.17
2022-08-16T08:21:59.863Z,2.72
2022-08-16T08:25:04.010Z,3.30
2022-08-16T08:28:10.869Z,3.15
2022-08-16T08:31:16.259Z,2.90
2022-08-16T08:34:21.233Z,3.13
2022-08-16T08:37:25.453Z,3.90
2022-08-16T08:40:30.819Z,2.80
2022-08-16T08:43:36.389Z,3.50
2022-08-16T08:46:44.066Z,2.85
2022-08-16T08:50:05.546Z,2.85
2022-08-16T08:53:08.409Z,2.75
2022-08-16T08:56:23.807Z,2.70
2022-08-16T08:59:32.941Z,2.75
2022-08-16T09:02:36.791Z,3.60
2022-08-16T09:05:39.298Z,3.10
2022-08-16T09:08:47.519Z,3.10
2022-08-16T09:12:04.086Z,2.70
2022-08-16T09:15:15.867Z,2.85
2022-08-16T09:18:27.191Z,2.50
2022-08-16T09:21:37.804Z,2.67
2022-08-16T09:24:51.487Z,3.20
2022-08-16T09:27:57.749Z,2.72
2022-08-16T09:31:06.122Z,2.72
2022-08-16T09:34:07.934Z,2.67
2022-08-16T09:37:17.864Z,2.50
2022-08-16T09:40:33.094Z,3.20
2022-08-16T09:43:58.245Z,3.10
2022-08-16T09:47:01.266Z,2.92
2022-08-16T09:50:03.658Z,2.45
2022-08-16T09:53:23.138Z,2.90
2022-08-16T09:56:34.717Z,2.40
2022-08-16T09:59:38.475Z,2.95
2022-08-16T10:02:48.000Z,3.30
2022-08-16T10:05:58.407Z,3.05
2022-08-16T10:09:05.160Z,3.25
2022-08-16T10:12:26.963Z,2.58
2022-08-16T10:15:30.481Z,2.63
2022-08-16T10:18:56.093Z,2.60
2022-08-16T10:21:56.215Z,2.63
2022-08-16T10:24:59.976Z,2.50
2022-08-16T10:28:27.982Z,2.58
2022-08-16T10:31:46.140Z,2.53
2022-08-16T10:34:45.065Z,2.30
2022-08-16T10:37:46.598Z,2.30
2022-08-16T10:40:48.176Z,2.40
2022-08-16T10:43:50.444Z,2.10
2022-08-16T10:46:51.934Z,2.50
2022-08-16T10:49:55.671Z,2.15
2022-08-16T10:52:59.418Z,2.25
2022-08-16T10:56:02.888Z,2.35
2022-08-16T11:02:57.740Z,2.30
2022-08-16T11:06:06.005Z,2.13
2022-08-16T11:09:25.612Z,2.45
2022-08-16T11:12:32.058Z,2.63
2022-08-16T11:15:35.666Z,2.17
2022-08-16T11:19:04.787Z,2.00
2022-08-16T11:22:39.276Z,2.05
2022-08-16T11:32:10.396Z,2.22
2022-08-16T11:35:43.069Z,2.40
2022-08-16T11:38:55.316Z,2.17
2022-08-16T11:41:59.547Z,2.20
2022-08-16T11:45:01.070Z,2.33
2022-08-16T11:48:05.003Z,1.92
2022-08-16T11:51:06.611Z,2.03
2022-08-16T11:54:15.587Z,2.17
2022-08-16T11:57:22.538Z,2.17
2022-08-16T12:00:50.146Z,2.08
2022-08-16T12:03:46.217Z,2.58
2022-08-16T12:06:48.121Z,2.70
2022-08-16T12:09:53.477Z,2.28
2022-08-16T12:12:55.445Z,2.42
2022-08-16T12:15:59.575Z,2.42
2022-08-16T12:19:02.379Z,2.20
2022-08-16T12:22:19.047Z,2.28
2022-08-16T12:25:22.402Z,1.80
2022-08-16T12:28:25.418Z,2.00
2022-08-16T12:31:59.279Z,2.50
2022-08-16T12:35:03.142Z,2.15
2022-08-16T12:41:28.953Z,2.63
2022-08-16T12:44:37.580Z,2.50
2022-08-16T12:48:22.572Z,3.00
2022-08-16T12:51:24.498Z,2.50
2022-08-16T12:54:27.334Z,2.42
2022-08-16T12:57:36.525Z,2.38
2022-08-16T13:00:38.637Z,1.88
2022-08-16T13:03:42.028Z,2.50
2022-08-16T13:06:44.596Z,2.60
2022-08-16T13:09:55.428Z,2.22
2022-08-16T13:12:56.953Z,1.90
2022-08-16T13:16:05.645Z,2.70
2022-08-16T13:19:12.412Z,2.70
2022-08-16T13:22:19.517Z,3.10
2022-08-16T13:25:24.975Z,2.92
2022-08-16T13:28:26.661Z,2.67
2022-08-16T13:31:29.794Z,2.35
2022-08-16T13:34:31.289Z,2.00
2022-08-16T13:37:34.861Z,2.08
2022-08-16T13:40:37.925Z,2.20
2022-08-16T13:43:40.079Z,2.10
2022-08-16T13:46:41.716Z,2.00
2022-08-16T13:49:43.787Z,2.38
2022-08-16T13:52:45.379Z,2.60
2022-08-16T13:55:47.439Z,2.53
2022-08-16T13:59:00.470Z,2.17
2022-08-16T14:05:07.782Z,2.55
2022-08-16T14:08:12.578Z,2.58
2022-08-16T14:11:16.141Z,2.47
2022-08-16T14:14:18.385Z,2.53
2022-08-16T14:17:23.968Z,2.50
2022-08-16T14:20:25.884Z,2.83
2022-08-16T14:23:27.726Z,2.50
2022-08-16T14:26:30.071Z,2.70
2022-08-16T14:29:34.949Z,2.50
2022-08-16T14:32:41.571Z,2.50
2022-08-16T14:35:50.653Z,2.05
2022-08-16T14:38:52.434Z,2.05
2022-08-16T14:41:55.817Z,2.25
2022-08-16T14:44:57.619Z,2.40
2022-08-16T14:48:02.501Z,2.30
2022-08-16T14:51:06.084Z,2.58
2022-08-16T14:54:11.127Z,2.20
2022-08-16T14:57:14.275Z,2.10
2022-08-16T15:00:18.153Z,2.30
2022-08-16T15:03:21.764Z,2.67
2022-08-16T15:06:24.025Z,2.05
2022-08-16T15:09:26.025Z,2.45
2022-08-16T15:12:33.334Z,2.03
2022-08-16T15:15:37.237Z,2.00
2022-08-16T15:18:39.523Z,2.13
2022-08-16T15:21:41.198Z,2.20
2022-08-16T15:24:43.393Z,1.80
2022-08-16T15:27:45.758Z,2.40
2022-08-16T15:31:00.319Z,2.17
2022-08-16T15:34:02.601Z,2.67
2022-08-16T15:37:04.122Z,2.15
2022-08-16T15:40:26.491Z,2.08
2022-08-16T15:43:40.053Z,2.50
2022-08-16T15:46:56.550Z,2.00
2022-08-16T15:50:05.694Z,2.40
2022-08-16T15:53:12.570Z,1.70
2022-08-16T15:56:14.251Z,1.80
2022-08-16T15:59:16.077Z,1.75
2022-08-16T16:02:29.720Z,2.20
2022-08-16T16:05:32.847Z,2.25
2022-08-16T16:08:34.774Z,2.63
2022-08-16T16:11:38.283Z,2.60
2022-08-16T16:14:39.939Z,2.35
2022-08-16T16:17:43.930Z,2.65
2022-08-16T16:20:56.064Z,2.45
2022-08-16T16:23:57.933Z,2.40
2022-08-16T16:27:04.270Z,2.25
2022-08-16T16:30:32.770Z,2.85
2022-08-16T16:33:29.418Z,2.47
2022-08-16T16:36:34.384Z,2.42
2022-08-16T16:39:37.028Z,2.60
2022-08-16T16:42:44.520Z,2.55
2022-08-16T16:45:46.141Z,2.00
2022-08-16T16:48:48.243Z,2.60
2022-08-16T16:51:51.330Z,2.40
2022-08-16T16:54:52.827Z,2.75
2022-08-16T16:58:17.714Z,2.00
2022-08-16T17:01:20.738Z,2.70
2022-08-16T17:04:32.005Z,2.83
2022-08-16T17:07:34.120Z,2.20
2022-08-16T17:10:46.464Z,2.22
2022-08-16T17:13:52.288Z,1.70
2022-08-16T17:16:53.741Z,2.55
2022-08-16T17:19:55.208Z,2.97
2022-08-16T17:23:01.065Z,2.80
2022-08-16T17:26:02.606Z,2.45
2022-08-16T17:29:11.886Z,2.35
2022-08-16T17:32:33.817Z,2.58
2022-08-16T17:35:55.129Z,2.80
2022-08-16T17:38:57.562Z,2.35
2022-08-16T17:42:09.827Z,2.72
2022-08-16T17:45:11.408Z,2.50
2022-08-16T17:48:13.161Z,2.67
2022-08-16T17:51:15.056Z,2.80
2022-08-16T17:54:21.407Z,2.53
2022-08-16T17:57:31.958Z,2.38
2022-08-16T18:00:33.908Z,2.70
2022-08-16T18:04:02.740Z,2.58
2022-08-16T18:06:59.975Z,2.30
2022-08-16T18:10:02.116Z,2.08
2022-08-16T18:13:07.795Z,2.65
2022-08-16T18:16:10.151Z,2.45
2022-08-16T18:19:12.028Z,2.30
2022-08-16T18:22:30.213Z,2.38
2022-08-16T18:25:32.181Z,2.33
2022-08-16T18:28:38.719Z,2.22
2022-08-16T18:31:40.280Z,2.78
2022-08-16T18:34:42.217Z,2.20
2022-08-16T18:37:43.713Z,2.03
2022-08-16T18:40:45.935Z,2.40
2022-08-16T18:44:23.016Z,2.33
2022-08-16T18:47:09.750Z,2.60
2022-08-16T18:50:11.252Z,2.70
2022-08-16T18:53:15.950Z,2.20
2022-08-16T18:56:17.359Z,2.30
2022-08-16T18:59:18.946Z,2.22
2022-08-16T19:02:56.098Z,2.33
2022-08-16T19:05:50.903Z,2.35
2022-08-16T19:08:52.351Z,2.47
2022-08-16T19:11:53.844Z,2.80
2022-08-16T19:14:57.336Z,3.00
2022-08-16T19:18:00.169Z,2.47
2022-08-16T19:21:01.712Z,2.88
2022-08-16T19:24:03.595Z,2.95
2022-08-16T19:27:07.156Z,2.60
2022-08-16T19:30:09.495Z,2.80
2022-08-16T19:33:11.372Z,2.88
2022-08-16T19:36:30.438Z,2.53
2022-08-16T19:39:36.469Z,3.05
2022-08-16T19:42:39.717Z,2.92
2022-08-16T19:48:47.609Z,2.17
2022-08-16T19:51:49.095Z,2.65
2022-08-16T19:54:54.502Z,2.20
2022-08-16T19:57:56.547Z,2.60
2022-08-16T20:00:58.036Z,2.85
2022-08-16T20:04:00.194Z,2.63
2022-08-16T20:07:01.940Z,2.67
2022-08-16T20:10:05.878Z,2.88
2022-08-16T20:13:12.904Z,2.55
2022-08-16T20:16:15.236Z,2.60
2022-08-16T20:19:16.714Z,2.97
2022-08-16T20:22:42.164Z,3.00
2022-08-16T20:25:47.489Z,2.83
2022-08-16T20:28:53.819Z,2.70
2022-08-16T20:31:56.578Z,2.47
2022-08-16T20:34:58.173Z,3.20
2022-08-16T20:38:01.705Z,2.45
2022-08-16T20:44:04.765Z,3.55
2022-08-16T20:47:10.055Z,2.70
2022-08-16T20:50:11.583Z,2.03
2022-08-16T20:53:13.122Z,2.90
2022-08-16T20:56:14.766Z,2.67
2022-08-16T20:59:16.720Z,2.65
2022-08-16T21:02:25.994Z,2.72
2022-08-16T21:05:31.115Z,3.38
2022-08-16T21:08:52.754Z,2.80
2022-08-16T21:11:57.348Z,3.10
2022-08-16T21:15:04.381Z,3.08
2022-08-16T21:18:05.929Z,3.00
2022-08-16T21:21:07.561Z,2.70
2022-08-16T21:24:09.012Z,2.25
2022-08-16T21:27:11.089Z,2.17
2022-08-16T21:30:15.675Z,2.85
2022-08-16T21:33:20.899Z,2.22
2022-08-16T21:36:35.009Z,2.70
2022-08-16T21:39:38.638Z,2.72
2022-08-16T21:42:42.668Z,2.73
2022-08-16T21:45:45.111Z,3.08
2022-08-16T21:48:46.637Z,3.10
2022-08-16T21:51:48.178Z,3.22
2022-08-16T21:54:56.281Z,3.40
2022-08-16T21:57:58.228Z,3.45
2022-08-16T22:01:01.120Z,2.58
2022-08-16T22:04:38.105Z,2.83
2022-08-16T22:07:25.857Z,3.28
2022-08-16T22:11:06.529Z,3.40
2022-08-16T22:13:58.007Z,3.10
2022-08-16T22:17:01.461Z,2.90
2022-08-16T22:20:05.306Z,3.33
2022-08-16T22:23:13.943Z,3.47
2022-08-16T22:26:15.713Z,3.30
2022-08-16T22:29:17.228Z,3.47
2022-08-16T22:32:18.695Z,2.22
2022-08-16T22:35:20.167Z,2.60
2022-08-16T22:38:54.957Z,2.60
2022-08-16T22:41:45.373Z,2.28
2022-08-16T22:47:48.682Z,2.47
2022-08-16T22:50:51.256Z,2.10
2022-08-16T22:53:53.430Z,2.08
2022-08-16T22:56:57.234Z,2.80
2022-08-16T22:59:58.789Z,3.20
2022-08-16T23:03:13.792Z,3.45
2022-08-16T23:06:15.873Z,2.58
2022-08-16T23:09:17.675Z,2.25
2022-08-16T23:12:29.118Z,2.13
2022-08-16T23:15:42.838Z,2.15
2022-08-16T23:18:45.162Z,3.03
2022-08-16T23:21:47.184Z,3.15
2022-08-16T23:24:56.014Z,2.92
2022-08-16T23:27:58.325Z,3.15
2022-08-16T23:34:06.570Z,3.00
2022-08-16T23:37:08.096Z,2.80
2022-08-16T23:40:11.678Z,2.83
2022-08-16T23:43:17.271Z,2.25
2022-08-16T23:46:19.446Z,2.20
2022-08-16T23:49:57.594Z,2.53
2022-08-16T23:52:58.766Z,2.53
2022-08-16T23:56:03.767Z,2.10
2022-08-16T23:59:05.589Z,3.55
